Time;durP1;ratioP1;P1;durP2;ratioP2;P2;SDS_P1;SDS_P2;PMS_P1;PMS_P2;Temp;Humidity;BMP_temperature;BMP_pressure;BME280_temperature;BME280_humidity;BME280_pressure;Samples;Min_cycle;Max_cycle;Signal;HPM_P1;HPM_P2
2023/06/18 00:01:22;;;;;;;2.57;2.33;;;;;;;28.81;47.40;100873.31;5056472;28;65688;-37
2023/06/18 00:03:54;;;;;;;3.77;2.37;;;;;;;28.84;48.06;100875.59;5057942;28;69890;-40
2023/06/18 00:06:25;;;;;;;2.88;2.67;;;;;;;28.85;48.31;100872.66;5047779;28;66694;-38
2023/06/18 00:08:56;;;;;;;4.05;2.95;;;;;;;28.92;48.25;100884.31;5057918;28;70212;-38
2023/06/18 00:11:27;;;;;;;3.20;2.50;;;;;;;28.95;48.56;100883.88;5061037;28;65869;-39
2023/06/18 00:13:59;;;;;;;2.83;2.63;;;;;;;29.00;49.01;100879.72;5063519;28;70304;-38
2023/06/18 00:16:30;;;;;;;3.53;3.22;;;;;;;29.03;49.23;100885.59;5061021;28;66420;-38
2023/06/18 00:19:02;;;;;;;3.55;3.13;;;;;;;29.08;49.92;100887.66;5056834;28;70197;-38
2023/06/18 00:21:33;;;;;;;10.52;3.20;;;;;;;29.02;50.19;100878.47;5060135;28;65944;-38
2023/06/18 00:24:05;;;;;;;3.80;3.22;;;;;;;28.74;50.03;100822.81;5058945;28;70453;-39
2023/06/18 00:26:36;;;;;;;4.90;3.38;;;;;;;29.18;50.34;100893.47;5057775;28;66565;-39
2023/06/18 00:29:08;;;;;;;4.25;3.85;;;;;;;29.22;51.04;100878.50;5042763;28;71344;-38
2023/06/18 00:31:39;;;;;;;5.67;3.20;;;;;;;29.26;50.90;100892.44;5059074;28;66077;-37
2023/06/18 00:34:14;;;;;;;5.23;3.37;;;;;;;29.31;51.50;100904.28;5012156;28;70440;-38
2023/06/18 00:36:50;;;;;;;4.65;3.25;;;;;;;29.33;51.42;100898.66;5058446;28;66428;-37
2023/06/18 00:39:22;;;;;;;10.63;3.50;;;;;;;29.35;51.62;100910.91;5065982;28;70256;-38
2023/06/18 00:41:53;;;;;;;4.70;3.92;;;;;;;29.28;52.42;100896.59;5061012;28;65757;-38
2023/06/18 00:44:24;;;;;;;19.70;4.10;;;;;;;29.46;52.65;100917.56;5036913;28;70532;-38
2023/06/18 00:47:00;;;;;;;6.10;3.70;;;;;;;29.40;51.68;100927.34;5051265;28;65755;-38
2023/06/18 00:49:31;;;;;;;15.20;3.90;;;;;;;29.55;52.47;100937.09;5058263;28;70496;-39
2023/06/18 00:52:03;;;;;;;13.98;4.30;;;;;;;29.60;52.48;100942.69;5042749;28;66136;-39
2023/06/18 00:54:36;;;;;;;19.65;4.28;;;;;;;29.57;52.71;100938.53;5042704;28;69821;-38
2023/06/18 00:57:08;;;;;;;17.15;4.10;;;;;;;29.69;53.13;100954.97;5056092;28;66216;-38
2023/06/18 00:59:44;;;;;;;18.50;4.38;;;;;;;29.09;52.81;100846.13;5053522;28;69501;-38
2023/06/18 01:02:23;;;;;;;3.50;3.20;;;;;;;29.47;51.59;100908.41;5059068;28;65750;-38
2023/06/18 01:04:59;;;;;;;3.58;3.30;;;;;;;29.21;51.88;100866.03;5049212;28;69299;-38
2023/06/18 01:07:39;;;;;;;10.25;3.05;;;;;;;29.71;52.11;100942.09;5055412;28;65744;-38
2023/06/18 01:10:20;;;;;;;6.43;2.88;;;;;;;29.76;51.86;100955.81;5052902;28;70594;-38
2023/06/18 01:12:54;;;;;;;3.95;3.53;;;;;;;29.82;51.65;100960.38;5039009;28;65342;-38
2023/06/18 01:15:26;;;;;;;4.10;3.42;;;;;;;30.00;52.03;100977.78;5055916;28;70174;-38
2023/06/18 01:17:58;;;;;;;3.70;3.40;;;;;;;29.18;51.78;100855.66;5057050;28;65530;-38
2023/06/18 01:20:31;;;;;;;3.42;3.13;;;;;;;30.05;52.06;100991.50;5051516;28;69886;-38
2023/06/18 01:23:02;;;;;;;9.05;5.03;;;;;;;30.05;53.20;100992.34;5037634;28;66548;-37
2023/06/18 01:25:37;;;;;;;10.23;5.45;;;;;;;29.46;53.73;100895.09;5051976;28;69835;-39
2023/06/18 01:28:10;;;;;;;9.77;5.75;;;;;;;30.06;54.53;100998.56;5055296;28;66320;-39
2023/06/18 01:30:42;;;;;;;10.32;5.18;;;;;;;30.11;54.69;101006.06;5038134;28;70300;-40
2023/06/18 01:33:13;;;;;;;5.55;5.15;;;;;;;30.12;54.92;101003.16;5064818;28;67048;-40
2023/06/18 01:35:45;;;;;;;8.43;4.63;;;;;;;30.13;54.63;101010.22;5064933;28;69941;-39
2023/06/18 01:38:24;;;;;;;9.53;4.80;;;;;;;30.16;55.39;101008.97;5062697;28;65943;-40
2023/06/18 01:40:58;;;;;;;16.25;5.60;;;;;;;30.22;58.13;101008.97;5042452;28;71070;-40
2023/06/18 01:43:41;;;;;;;10.80;7.35;;;;;;;29.64;61.13;100914.22;5055745;28;66318;-41
2023/06/18 01:46:16;;;;;;;16.95;7.43;;;;;;;29.68;61.98;100891.16;5031503;28;70285;-39
2023/06/18 01:49:08;;;;;;;16.50;7.45;;;;;;;30.19;63.25;100989.59;5054667;28;66238;-39
2023/06/18 01:51:40;;;;;;;19.02;8.38;;;;;;;30.25;64.32;100986.88;5053988;28;70551;-39
2023/06/18 01:54:12;;;;;;;23.83;8.18;;;;;;;30.42;64.78;100995.41;5021849;28;65473;-40
2023/06/18 01:56:44;;;;;;;14.55;8.25;;;;;;;30.49;65.92;101003.47;5053924;28;70273;-39
2023/06/18 01:59:15;;;;;;;9.20;7.05;;;;;;;30.61;63.64;100996.31;5028203;28;66425;-41
2023/06/18 02:01:47;;;;;;;6.53;5.97;;;;;;;30.61;63.09;100996.31;5038791;28;70424;-39
2023/06/18 02:04:18;;;;;;;6.57;5.93;;;;;;;30.71;62.23;100995.88;5057832;28;65924;-41
2023/06/18 02:06:50;;;;;;;5.83;5.33;;;;;;;30.76;61.38;100997.91;5059626;28;72119;-40
2023/06/18 02:09:22;;;;;;;11.48;6.65;;;;;;;30.37;61.91;100923.97;5037869;28;65328;-39
2023/06/18 02:11:53;;;;;;;6.35;5.95;;;;;;;30.85;61.94;100999.38;5061299;28;70269;-39
2023/06/18 02:14:25;;;;;;;7.07;5.70;;;;;;;30.86;61.44;101003.72;5052579;28;65384;-39
2023/06/18 02:16:57;;;;;;;5.10;4.70;;;;;;;30.93;60.96;101004.53;5036749;28;69823;-39
2023/06/18 02:19:28;;;;;;;6.18;5.55;;;;;;;30.97;60.94;101000.31;5061460;28;66295;-40
2023/06/18 02:21:59;;;;;;;5.60;4.90;;;;;;;30.99;61.17;100984.69;5057280;28;70495;-38
2023/06/18 02:24:32;;;;;;;6.88;4.72;;;;;;;31.01;60.61;100982.59;5042845;28;65428;-40
2023/06/18 02:27:04;;;;;;;4.85;4.55;;;;;;;31.08;61.23;100986.06;5060301;28;69543;-40
2023/06/18 02:29:35;;;;;;;5.57;5.18;;;;;;;30.92;60.81;100948.69;5060729;28;66946;-40
2023/06/18 02:32:07;;;;;;;4.97;4.55;;;;;;;31.12;60.92;100971.06;5060966;28;69184;-40
2023/06/18 02:34:39;;;;;;;6.47;4.57;;;;;;;31.13;60.77;100980.84;5061275;28;65607;-40
2023/06/18 02:37:11;;;;;;;5.03;4.53;;;;;;;31.21;60.81;100981.63;5060992;28;70140;-39
2023/06/18 02:39:42;;;;;;;5.25;4.95;;;;;;;31.20;61.03;100977.25;5061406;28;66350;-39
2023/06/18 02:42:14;;;;;;;5.40;5.05;;;;;;;31.24;61.09;100981.19;5059255;28;69234;-40
2023/06/18 02:44:46;;;;;;;4.55;4.25;;;;;;;31.28;61.45;100985.09;5043682;28;65462;-39
2023/06/18 02:47:18;;;;;;;4.63;4.32;;;;;;;31.35;60.83;100986.72;5060261;28;70038;-39
2023/06/18 02:49:49;;;;;;;5.20;4.70;;;;;;;31.37;60.91;100983.78;5036112;28;66445;-39
2023/06/18 02:52:20;;;;;;;5.65;4.57;;;;;;;31.24;61.01;100951.38;5040195;28;70486;-39
2023/06/18 02:54:51;;;;;;;5.28;4.53;;;;;;;31.33;61.36;100960.88;5041683;28;65797;-39
2023/06/18 02:57:23;;;;;;;4.80;4.47;;;;;;;31.47;60.92;100976.00;5042752;28;70290;-40
2023/06/18 02:59:54;;;;;;;4.85;4.45;;;;;;;31.50;60.83;100972.84;5035464;28;65652;-40
2023/06/18 03:02:26;;;;;;;5.15;4.75;;;;;;;31.54;61.03;100976.78;5040322;28;70111;-39
2023/06/18 03:04:57;;;;;;;4.60;4.30;;;;;;;31.40;61.19;100961.69;5056869;28;66742;-39
2023/06/18 03:07:28;;;;;;;;;;;;;;;31.31;62.39;100973.81;5043765;28;69254;-40
2023/06/18 03:09:59;;;;;;;4.35;4.05;;;;;;;31.47;60.48;100946.19;5057328;28;66852;-38
2023/06/18 03:12:33;;;;;;;4.50;4.20;;;;;;;31.61;60.63;100974.81;5023022;28;70496;-39
2023/06/18 03:15:14;;;;;;;4.57;4.28;;;;;;;31.67;61.09;100969.56;5041800;28;66567;-41
2023/06/18 03:17:46;;;;;;;4.18;3.83;;;;;;;31.63;60.59;100950.22;5036175;28;69975;-41
2023/06/18 03:20:19;;;;;;;4.72;4.32;;;;;;;31.74;60.58;100960.31;5036463;28;65821;-40
2023/06/18 03:22:57;;;;;;;5.00;4.50;;;;;;;31.66;60.68;100943.50;5036147;28;70554;-41
2023/06/18 03:25:30;;;;;;;4.80;4.50;;;;;;;31.78;60.58;100963.41;5040967;28;66580;-40
2023/06/18 03:28:00;;;;;;;;;;;;;;;31.50;61.76;100966.59;5042028;28;69624;-39
2023/06/18 03:30:36;;;;;;;6.78;4.85;;;;;;;31.80;60.71;100966.72;5052291;28;66097;-40
2023/06/18 03:33:08;;;;;;;4.60;4.30;;;;;;;31.86;60.54;100965.00;5054365;28;70069;-40
2023/06/18 03:35:43;;;;;;;4.57;4.28;;;;;;;31.78;60.27;100947.13;5050314;28;65441;-42
2023/06/18 03:38:15;;;;;;;4.53;4.22;;;;;;;31.90;60.11;100953.47;5039620;28;69418;-40
2023/06/18 03:40:47;;;;;;;6.60;4.70;;;;;;;31.89;61.84;100950.97;5040488;28;65929;-41
2023/06/18 03:43:20;;;;;;;11.07;9.25;;;;;;;31.75;62.43;100936.72;5037107;28;69555;-41
2023/06/18 03:45:52;;;;;;;;;;;;;;;31.59;63.49;100941.72;5038086;28;66678;-41
2023/06/18 03:48:25;;;;;;;32.40;28.88;;;;;;;31.73;63.89;100944.25;5038502;28;69058;-43
2023/06/18 03:50:56;;;;;;;40.33;36.08;;;;;;;31.68;64.25;100936.81;5040854;28;65969;-44
2023/06/18 03:53:29;;;;;;;37.55;32.00;;;;;;;31.69;64.16;100924.06;5038180;28;69967;-42
2023/06/18 03:56:01;;;;;;;37.38;29.00;;;;;;;31.63;64.63;100927.69;5033018;28;66160;-40
2023/06/18 03:58:32;;;;;;;30.70;27.55;;;;;;;31.52;64.73;100910.28;5041199;28;69853;-41
2023/06/18 04:01:04;;;;;;;27.80;24.63;;;;;;;31.56;64.83;100906.88;5037013;28;65943;-42
2023/06/18 04:03:39;;;;;;;24.90;22.40;;;;;;;31.68;64.85;100925.13;5034542;28;70201;-43
2023/06/18 04:06:11;;;;;;;21.33;19.35;;;;;;;31.78;63.37;100914.59;5037816;28;66511;-42
2023/06/18 04:08:42;;;;;;;20.15;18.15;;;;;;;31.80;62.99;100913.31;5039559;28;69745;-42
2023/06/18 04:11:15;;;;;;;18.90;16.63;;;;;;;31.87;62.78;100902.38;5054548;28;65928;-41
2023/06/18 04:13:47;;;;;;;15.73;14.20;;;;;;;31.89;62.56;100899.44;5040439;28;69107;-41
2023/06/18 04:16:19;;;;;;;18.23;16.52;;;;;;;31.94;62.50;100905.88;5037603;28;66286;-42
2023/06/18 04:18:50;;;;;;;15.40;14.18;;;;;;;31.98;62.32;100898.94;5037949;28;70343;-41
2023/06/18 04:21:21;;;;;;;15.63;14.23;;;;;;;32.00;62.18;100902.25;5035920;28;65978;-41
2023/06/18 04:23:59;;;;;;;15.80;14.43;;;;;;;32.04;61.82;100892.59;5038019;28;70160;-40
2023/06/18 04:26:31;;;;;;;40.13;24.33;;;;;;;31.96;63.80;100895.63;5039510;28;65928;-41
2023/06/18 04:29:03;;;;;;;36.25;32.78;;;;;;;31.94;64.31;100892.31;5038227;28;70475;-42
2023/06/18 04:31:35;;;;;;;48.37;38.07;;;;;;;31.92;64.55;100894.41;5046165;28;66645;-43
2023/06/18 04:34:07;;;;;;;34.20;30.95;;;;;;;32.03;63.12;100896.34;5050729;28;68801;-42
2023/06/18 04:36:40;;;;;;;29.88;27.02;;;;;;;32.11;62.73;100886.25;5020704;28;66139;-40
2023/06/18 04:39:15;;;;;;;30.75;27.35;;;;;;;31.96;62.44;100852.22;5038764;28;70067;-40
2023/06/18 04:41:46;;;;;;;28.52;25.70;;;;;;;32.17;62.22;100883.44;5038376;28;65891;-42
2023/06/18 04:44:18;;;;;;;28.10;25.20;;;;;;;32.13;62.03;100863.28;5036862;28;69282;-40
2023/06/18 04:46:50;;;;;;;27.15;24.65;;;;;;;32.22;61.90;100866.50;5029575;28;64831;-41
2023/06/18 04:49:22;;;;;;;25.67;23.58;;;;;;;32.24;61.69;100869.81;5036345;28;69491;-40
2023/06/18 04:51:55;;;;;;;25.55;22.63;;;;;;;32.18;61.58;100851.72;5037078;28;65371;-40
2023/06/18 04:54:26;;;;;;;24.90;22.52;;;;;;;32.23;61.76;100857.28;5034717;28;69271;-40
2023/06/18 04:56:58;;;;;;;24.92;22.15;;;;;;;32.27;61.43;100858.50;5037272;28;66234;-41
2023/06/18 04:59:29;;;;;;;23.58;21.45;;;;;;;32.31;61.34;100856.97;5036509;28;69693;-41
2023/06/18 05:02:01;;;;;;;23.25;20.73;;;;;;;32.34;61.18;100859.22;5038591;28;66421;-41
2023/06/18 05:04:32;;;;;;;;;;;;;;;31.89;61.29;100856.03;5045970;28;70531;-41
2023/06/18 05:07:05;;;;;;;23.40;21.45;;;;;;;31.89;58.59;100845.19;5030127;28;66793;-42
2023/06/18 05:09:40;;;;;;;23.08;20.98;;;;;;;31.76;57.38;100847.03;5036353;28;70691;-42
2023/06/18 05:12:11;;;;;;;22.98;20.73;;;;;;;31.56;55.87;100830.97;5031722;28;66384;-42
2023/06/18 05:14:42;;;;;;;21.45;19.75;;;;;;;31.06;54.71;100767.91;5046364;28;69930;-43
2023/06/18 05:17:14;;;;;;;;;;;;;;;31.06;54.94;100825.63;5029450;28;66365;-45
2023/06/18 05:19:46;;;;;;;34.67;31.20;;;;;;;31.21;54.02;100805.50;5030624;28;70137;-41
2023/06/18 05:22:18;;;;;;;33.92;30.98;;;;;;;31.06;53.10;100805.81;5004364;28;65290;-42
2023/06/18 05:24:49;;;;;;;;;;;;;;;30.88;53.62;100804.75;5014242;28;70187;-41
2023/06/18 05:27:20;;;;;;;30.98;27.75;;;;;;;30.94;53.31;100784.06;5013647;28;65671;-38
2023/06/18 05:29:51;;;;;;;28.58;25.98;;;;;;;31.04;52.49;100792.53;5011682;28;69808;-41
2023/06/18 05:32:23;;;;;;;28.10;25.33;;;;;;;30.58;52.48;100738.75;5026838;28;66184;-40
2023/06/18 05:34:58;;;;;;;29.25;25.00;;;;;;;30.96;51.46;100787.38;5013235;28;70161;-38
2023/06/18 05:37:29;;;;;;;49.28;44.42;;;;;;;31.00;52.46;100788.59;5030113;28;66254;-41
2023/06/18 05:40:01;;;;;;;46.10;41.53;;;;;;;30.91;51.24;100773.69;5011784;28;69360;-44
2023/06/18 05:42:41;;;;;;;43.00;38.67;;;;;;;30.89;50.65;100782.00;4996581;28;65259;-42
2023/06/18 05:45:14;;;;;;;40.45;36.08;;;;;;;30.89;49.51;100767.66;5006082;28;70891;-39
2023/06/18 05:47:47;;;;;;;39.08;35.20;;;;;;;30.84;49.57;100778.31;4990901;28;66023;-39
2023/06/18 05:50:28;;;;;;;38.80;34.72;;;;;;;30.88;50.02;100764.13;5014544;28;69456;-41
2023/06/18 05:53:00;;;;;;;45.47;35.67;;;;;;;30.81;49.49;100748.97;5017927;28;66263;-46
2023/06/18 05:55:32;;;;;;;55.85;35.03;;;;;;;30.91;49.65;100757.44;5017362;28;70475;-41
2023/06/18 05:58:03;;;;;;;49.58;34.47;;;;;;;30.79;49.39;100742.94;5016030;28;66172;-42
2023/06/18 06:00:35;;;;;;;42.33;31.67;;;;;;;30.85;48.75;100742.09;5016372;28;68225;-42
2023/06/18 06:03:06;;;;;;;53.75;27.35;;;;;;;30.03;48.58;100604.94;5016811;28;65214;-42
2023/06/18 06:05:38;;;;;;;36.85;26.58;;;;;;;30.83;47.90;100727.94;5015390;28;69913;-40
2023/06/18 06:08:11;;;;;;;36.50;26.80;;;;;;;30.84;47.94;100724.16;5017848;28;66087;-42
2023/06/18 06:10:47;;;;;;;37.40;24.75;;;;;;;30.68;47.22;100702.00;5009684;28;69954;-41
2023/06/18 06:13:19;;;;;;;29.13;22.67;;;;;;;30.64;47.25;100692.66;5002941;28;65118;-43
2023/06/18 06:15:55;;;;;;;25.77;23.20;;;;;;;30.76;46.94;100705.44;5023626;28;69969;-42
2023/06/18 06:18:27;;;;;;;28.80;21.67;;;;;;;30.53;46.61;100673.63;5039899;28;66207;-43
2023/06/18 06:20:58;;;;;;;23.52;20.60;;;;;;;30.69;46.32;100695.53;5062393;28;70626;-45
2023/06/18 06:23:34;;;;;;;28.83;20.33;;;;;;;30.54;45.58;100669.88;5053124;28;65279;-43
2023/06/18 06:26:06;;;;;;;22.15;20.23;;;;;;;30.65;45.70;100688.09;5026310;28;70712;-42
2023/06/18 06:28:38;;;;;;;21.40;19.17;;;;;;;30.46;45.21;100657.44;5049601;28;65245;-43
2023/06/18 06:31:10;;;;;;;19.98;18.48;;;;;;;30.58;45.14;100677.31;5043069;28;69897;-42
2023/06/18 06:33:41;;;;;;;20.95;19.02;;;;;;;30.35;45.20;100633.84;5059856;28;66298;-43
2023/06/18 06:36:13;;;;;;;19.80;17.80;;;;;;;30.56;44.49;100657.75;5062271;28;69553;-42
2023/06/18 06:38:45;;;;;;;18.75;17.33;;;;;;;30.43;43.98;100642.47;5056652;28;66543;-41
2023/06/18 06:41:17;;;;;;;18.05;16.67;;;;;;;30.55;44.13;100650.69;5043099;28;70239;-41
2023/06/18 06:43:49;;;;;;;18.75;17.13;;;;;;;30.56;44.23;100646.91;5044330;28;65918;-41
2023/06/18 06:46:52;;;;;;;18.33;16.80;;;;;;;30.49;43.80;100624.53;5041654;28;69269;-43
2023/06/18 06:49:35;;;;;;;15.93;14.93;;;;;;;30.68;43.31;100645.16;5041147;28;65522;-42
2023/06/18 06:52:30;;;;;;;16.25;15.13;;;;;;;30.71;43.93;100641.16;5034253;28;69323;-41
2023/06/18 06:55:02;;;;;;;14.40;13.63;;;;;;;30.69;43.35;100641.38;5061869;28;66197;-42
2023/06/18 06:57:33;;;;;;;13.82;13.02;;;;;;;30.77;44.26;100648.38;5025634;28;70291;-45
2023/06/18 07:00:06;;;;;;;17.25;13.32;;;;;;;30.53;43.41;100604.06;5051099;28;65235;-41
2023/06/18 07:02:38;;;;;;;13.30;12.05;;;;;;;30.77;43.78;100628.59;5064512;28;70572;-41
2023/06/18 07:05:10;;;;;;;13.00;12.20;;;;;;;30.75;43.46;100617.16;5064603;28;65757;-42
2023/06/18 07:07:42;;;;;;;11.52;11.02;;;;;;;30.82;43.42;100616.06;5057991;28;71082;-40
2023/06/18 07:10:14;;;;;;;10.73;10.23;;;;;;;30.84;43.35;100615.81;5061956;28;65892;-40
2023/06/18 07:12:45;;;;;;;10.85;10.20;;;;;;;30.85;43.41;100612.91;5059049;28;69686;-39
2023/06/18 07:15:17;;;;;;;15.63;9.93;;;;;;;30.78;43.06;100616.72;5065142;28;66546;-41
2023/06/18 07:17:48;;;;;;;10.90;9.85;;;;;;;30.74;43.20;100621.75;5060708;28;69917;-40
2023/06/18 07:20:20;;;;;;;10.60;9.02;;;;;;;30.70;43.42;100626.81;5061037;28;66452;-40
2023/06/18 07:22:52;;;;;;;10.20;8.90;;;;;;;30.72;43.89;100619.25;5063152;28;69378;-41
2023/06/18 07:25:23;;;;;;;8.87;8.40;;;;;;;30.75;43.77;100628.00;5061649;28;65983;-39
2023/06/18 07:27:55;;;;;;;12.57;8.80;;;;;;;30.61;43.51;100617.31;5066103;28;69847;-44
2023/06/18 07:30:27;;;;;;;10.90;8.00;;;;;;;30.65;43.62;100629.34;5064970;28;66326;-40
2023/06/18 07:32:58;;;;;;;11.43;8.00;;;;;;;30.57;43.40;100618.81;5059236;28;70012;-42
2023/06/18 07:35:30;;;;;;;11.48;7.85;;;;;;;30.59;42.95;100614.00;5058235;28;66993;-43
2023/06/18 07:38:03;;;;;;;8.27;7.68;;;;;;;30.64;42.35;100616.84;5041271;28;70161;-42
2023/06/18 07:40:37;;;;;;;7.32;6.93;;;;;;;30.59;42.67;100603.19;5057326;28;66016;-43
2023/06/18 07:43:09;;;;;;;8.20;7.43;;;;;;;30.58;42.45;100609.63;5043156;28;69259;-44
2023/06/18 07:45:41;;;;;;;7.15;6.57;;;;;;;30.57;42.12;100597.16;5057859;28;65207;-44
2023/06/18 07:48:12;;;;;;;7.30;6.65;;;;;;;30.49;42.21;100592.03;5062855;28;70237;-44
2023/06/18 07:50:45;;;;;;;6.87;6.47;;;;;;;30.57;42.80;100589.03;5062259;28;66213;-42
2023/06/18 07:53:16;;;;;;;9.68;6.78;;;;;;;30.61;42.91;100595.66;5059527;28;69788;-40
2023/06/18 07:55:48;;;;;;;12.38;6.47;;;;;;;30.56;42.80;100579.25;5061503;28;66068;-42
2023/06/18 07:58:20;;;;;;;;;;;;;;;30.41;43.13;100579.63;5058652;28;70145;-42
2023/06/18 08:00:51;;;;;;;9.37;8.63;;;;;;;30.62;44.59;100575.66;5064993;28;67425;-41
2023/06/18 08:03:23;;;;;;;17.60;13.77;;;;;;;30.72;50.22;100584.06;5041779;28;69631;-41
2023/06/18 08:05:54;;;;;;;19.30;14.70;;;;;;;30.84;49.69;100572.50;5051252;28;66617;-43
2023/06/18 08:08:26;;;;;;;14.70;13.40;;;;;;;30.96;49.63;100581.53;5055899;28;70105;-41
2023/06/18 08:10:57;;;;;;;13.97;12.87;;;;;;;31.02;50.27;100596.88;5062125;28;65874;-42
2023/06/18 08:13:29;;;;;;;20.77;14.55;;;;;;;31.13;53.84;100597.97;5056057;28;69637;-44
2023/06/18 08:16:01;;;;;;;18.95;15.13;;;;;;;31.34;56.32;100599.34;5023405;28;66590;-40
2023/06/18 08:18:34;;;;;;;;;;;;;;;31.28;58.31;100573.16;5056568;28;69893;-42
2023/06/18 08:21:05;;;;;;;16.40;14.65;;;;;;;31.46;58.99;100572.31;5056499;28;66307;-42
2023/06/18 08:23:37;;;;;;;15.73;14.55;;;;;;;31.61;59.23;100581.66;5055918;28;70767;-44
2023/06/18 08:26:08;;;;;;;14.47;13.10;;;;;;;31.70;59.19;100584.03;5058039;28;65945;-42
2023/06/18 08:28:39;;;;;;;14.07;12.80;;;;;;;31.73;59.49;100575.44;5055824;28;69881;-43
2023/06/18 08:31:11;;;;;;;13.25;12.40;;;;;;;31.81;59.68;100580.50;5056565;28;66876;-44
2023/06/18 08:33:42;;;;;;;12.23;11.50;;;;;;;31.70;59.98;100546.88;5057163;28;70115;-43
2023/06/18 08:36:14;;;;;;;12.35;11.48;;;;;;;31.91;60.38;100583.50;5054174;28;66758;-43
2023/06/18 08:38:45;;;;;;;10.82;10.02;;;;;;;31.97;60.46;100579.84;5058236;28;69581;-44
2023/06/18 08:41:17;;;;;;;10.07;9.30;;;;;;;31.92;60.84;100579.72;5055169;28;66727;-44
2023/06/18 08:43:48;;;;;;;9.80;9.00;;;;;;;31.50;61.00;100501.13;5059108;28;70078;-44
2023/06/18 08:46:22;;;;;;;8.55;7.88;;;;;;;32.07;60.92;100584.72;5056736;28;66414;-44
2023/06/18 08:49:00;;;;;;;7.85;7.35;;;;;;;31.51;61.12;100497.38;5057239;28;70229;-44
2023/06/18 08:51:32;;;;;;;8.95;8.13;;;;;;;32.12;61.09;100584.00;5058699;28;67433;-44
2023/06/18 08:54:05;;;;;;;;;;;;;;;31.94;61.84;100579.50;5037640;28;70235;-44
2023/06/18 08:56:50;;;;;;;14.00;7.82;;;;;;;31.86;61.63;100541.84;5058276;28;66588;-42
2023/06/18 08:59:22;;;;;;;10.20;6.88;;;;;;;32.15;62.34;100589.78;5034654;28;70658;-44
2023/06/18 09:01:54;;;;;;;9.32;5.00;;;;;;;32.13;63.15;100588.38;5043712;28;66136;-41
2023/06/18 09:04:29;;;;;;;8.05;4.90;;;;;;;31.52;64.08;100499.03;5056642;28;69240;-42
2023/06/18 09:07:01;;;;;;;5.18;4.65;;;;;;;32.08;64.11;100588.25;5057465;28;65615;-41
2023/06/18 09:09:32;;;;;;;;;;;;;;;31.84;64.72;100574.63;5056847;28;69997;-42
2023/06/18 09:12:03;;;;;;;6.38;4.70;;;;;;;32.05;65.26;100573.25;5057956;28;66338;-40
2023/06/18 09:14:34;;;;;;;10.95;4.43;;;;;;;32.20;62.41;100575.50;5055205;28;69923;-44
2023/06/18 09:17:06;;;;;;;20.33;5.35;;;;;;;32.22;64.67;100573.38;5049966;28;66704;-43
2023/06/18 09:19:38;;;;;;;6.78;4.30;;;;;;;32.29;62.84;100565.94;5053514;28;70330;-43
2023/06/18 09:22:14;;;;;;;18.85;4.40;;;;;;;31.88;63.18;100510.72;5044144;28;65840;-40
2023/06/18 09:25:00;;;;;;;6.82;4.13;;;;;;;32.34;63.38;100582.31;5042238;28;70549;-44
2023/06/18 09:27:34;;;;;;;9.32;3.83;;;;;;;32.41;62.02;100580.31;5059288;28;66690;-45
2023/06/18 09:30:17;;;;;;;9.20;3.58;;;;;;;32.43;62.15;100590.94;5057302;28;70215;-43
2023/06/18 09:32:48;;;;;;;8.70;3.80;;;;;;;32.46;61.11;100588.63;5057638;28;66572;-42
2023/06/18 09:35:20;;;;;;;4.00;3.22;;;;;;;32.50;61.49;100597.09;5058757;28;70890;-44
2023/06/18 09:37:53;;;;;;;3.85;3.45;;;;;;;31.74;61.06;100468.63;5057914;28;66302;-43
2023/06/18 09:40:26;;;;;;;8.65;3.28;;;;;;;32.52;61.02;100594.16;5056739;28;70509;-42
2023/06/18 09:43:01;;;;;;;4.47;3.60;;;;;;;32.53;61.50;100607.47;5057570;28;66141;-44
2023/06/18 09:45:33;;;;;;;8.27;3.65;;;;;;;32.28;60.80;100572.41;5056737;28;70197;-44
2023/06/18 09:48:04;;;;;;;5.28;3.35;;;;;;;32.53;60.76;100615.63;5056621;28;66261;-45
2023/06/18 09:50:36;;;;;;;4.38;3.63;;;;;;;32.52;60.82;100622.13;5059460;28;70182;-44
2023/06/18 09:53:18;;;;;;;4.05;3.65;;;;;;;32.15;61.32;100565.38;5033258;28;65472;-42
2023/06/18 09:55:50;;;;;;;7.22;4.45;;;;;;;32.47;60.67;100603.84;5055798;28;70111;-43
2023/06/18 09:58:40;;;;;;;4.35;3.95;;;;;;;32.42;61.43;100605.56;5059249;28;67165;-44
2023/06/18 10:01:12;;;;;;;5.30;4.18;;;;;;;32.47;60.44;100609.25;5060019;28;69561;-41
2023/06/18 10:03:44;;;;;;;3.88;3.47;;;;;;;32.56;60.24;100617.03;5059787;28;65358;-43
2023/06/18 10:06:21;;;;;;;4.70;3.92;;;;;;;32.40;60.59;100599.56;5059185;28;69983;-42
2023/06/18 10:08:57;;;;;;;3.95;3.65;;;;;;;32.51;60.66;100639.47;5057979;28;65640;-43
2023/06/18 10:11:30;;;;;;;4.00;3.65;;;;;;;32.52;60.44;100627.56;5042254;28;69842;-41
2023/06/18 10:14:06;;;;;;;5.55;3.30;;;;;;;31.82;60.09;100514.38;5060599;28;65349;-43
2023/06/18 10:16:41;;;;;;;4.35;3.95;;;;;;;32.48;60.32;100616.38;5061009;28;70163;-42
2023/06/18 10:19:29;;;;;;;3.60;3.30;;;;;;;32.51;60.33;100631.31;5061212;28;66044;-41
2023/06/18 10:22:05;;;;;;;6.90;4.30;;;;;;;31.70;62.00;100513.53;5054542;28;69478;-41
2023/06/18 10:24:45;;;;;;;5.68;4.13;;;;;;;32.26;62.52;100637.81;5057949;28;66252;-42
2023/06/18 10:27:17;;;;;;;8.70;4.88;;;;;;;32.21;63.11;100631.44;5059378;28;70195;-44
2023/06/18 10:29:49;;;;;;;7.60;4.10;;;;;;;31.86;63.20;100591.50;5055567;28;66527;-43
2023/06/18 10:32:20;;;;;;;;;;;;;;;31.92;64.36;100650.25;5058184;28;70038;-42
2023/06/18 10:34:55;;;;;;;5.13;4.15;;;;;;;31.48;63.82;100552.06;5059655;28;67361;-41
2023/06/18 10:37:30;;;;;;;4.45;4.15;;;;;;;32.12;63.75;100665.41;5059707;28;70389;-41
2023/06/18 10:40:03;;;;;;;4.47;4.07;;;;;;;31.93;64.06;100646.50;5055523;28;65374;-43
2023/06/18 10:42:35;;;;;;;5.20;3.80;;;;;;;31.92;64.21;100655.69;5039464;28;69339;-43
2023/06/18 10:45:14;;;;;;;9.50;4.82;;;;;;;31.41;64.46;100567.59;5054599;28;67158;-45
2023/06/18 10:47:46;;;;;;;4.07;3.72;;;;;;;32.18;63.06;100691.59;5053748;28;70252;-44
2023/06/18 10:50:18;;;;;;;3.30;3.08;;;;;;;32.16;62.73;100683.69;5054162;28;65498;-45
2023/06/18 10:52:53;;;;;;;4.05;3.70;;;;;;;32.11;62.72;100680.03;5061921;28;69705;-44
2023/06/18 10:55:24;;;;;;;9.13;3.63;;;;;;;32.24;62.76;100706.97;5057356;28;66399;-43
2023/06/18 10:58:01;;;;;;;3.92;3.63;;;;;;;32.26;62.52;100721.97;5059418;28;69519;-41
2023/06/18 11:00:40;;;;;;;4.00;3.70;;;;;;;32.13;62.64;100689.59;5063637;28;66260;-43
2023/06/18 11:03:17;;;;;;;3.88;3.45;;;;;;;32.27;62.63;100711.91;5063065;28;70419;-42
2023/06/18 11:05:53;;;;;;;3.70;3.40;;;;;;;31.80;62.76;100641.25;5063350;28;65633;-42
2023/06/18 11:08:33;;;;;;;4.43;4.13;;;;;;;31.59;63.03;100620.91;5035787;28;70391;-43
2023/06/18 11:11:14;;;;;;;4.32;4.03;;;;;;;31.54;62.94;100613.50;5060762;28;66091;-44
2023/06/18 11:14:05;;;;;;;4.63;4.22;;;;;;;32.09;63.09;100720.13;5060357;28;70307;-43
2023/06/18 11:16:37;;;;;;;5.20;4.80;;;;;;;32.27;63.41;100748.03;5059949;28;65729;-44
2023/06/18 11:19:09;;;;;;;5.50;5.05;;;;;;;32.29;63.44;100758.66;5060587;28;70989;-42
2023/06/18 11:21:46;;;;;;;4.30;4.00;;;;;;;31.76;63.38;100657.16;5061371;28;66147;-44
2023/06/18 11:24:17;;;;;;;4.38;3.97;;;;;;;32.29;63.58;100736.94;5059475;28;69600;-43
2023/06/18 11:26:49;;;;;;;5.05;4.68;;;;;;;32.27;63.53;100733.63;5064852;28;66609;-43
2023/06/18 11:29:21;;;;;;;4.30;3.90;;;;;;;32.27;63.40;100736.34;5056725;28;69244;-43
2023/06/18 11:31:52;;;;;;;4.65;4.35;;;;;;;32.30;63.69;100746.72;5050795;28;66576;-42
2023/06/18 11:34:24;;;;;;;5.07;4.68;;;;;;;32.27;63.63;100739.06;5063040;28;68990;-43
2023/06/18 11:36:55;;;;;;;4.43;3.83;;;;;;;32.32;63.55;100752.75;5060416;28;66405;-43
2023/06/18 11:39:26;;;;;;;4.72;4.28;;;;;;;32.33;63.79;100754.41;5060747;28;69632;-42
2023/06/18 11:42:20;;;;;;;4.47;4.07;;;;;;;31.72;64.58;100671.41;5060169;28;66899;-43
2023/06/18 11:44:56;;;;;;;5.05;4.60;;;;;;;32.37;64.17;100782.72;5060923;28;70249;-42
2023/06/18 11:47:28;;;;;;;5.05;4.57;;;;;;;32.41;63.98;100772.25;5060692;28;66191;-41
2023/06/18 11:49:59;;;;;;;9.57;7.20;;;;;;;32.24;67.12;100781.06;5053662;28;70392;-41